sensor_id;sensor_type;location;lat;lon;timestamp;temperature;humidity
17639;DHT22;8938;53.546;9.954;2023-04-15T00:00:01;12.10;99.90
17639;DHT22;8938;53.546;9.954;2023-04-15T00:02:27;12.20;99.90
17639;DHT22;8938;53.546;9.954;2023-04-15T00:04:53;12.30;99.90
17639;DHT22;8938;53.546;9.954;2023-04-15T00:07:19;12.30;99.90
17639;DHT22;8938;53.546;9.954;2023-04-15T00:09:44;12.30;99.90
17639;DHT22;8938;53.546;9.954;2023-04-15T00:12:10;12.40;99.90
17639;DHT22;8938;53.546;9.954;2023-04-15T00:14:36;12.40;99.90
17639;DHT22;8938;53.546;9.954;2023-04-15T00:17:02;12.30;99.90
17639;DHT22;8938;53.546;9.954;2023-04-15T00:19:28;12.10;99.90
17639;DHT22;8938;53.546;9.954;2023-04-15T00:21:54;12.00;99.90
17639;DHT22;8938;53.546;9.954;2023-04-15T00:24:20;11.90;99.90
17639;DHT22;8938;53.546;9.954;2023-04-15T00:26:45;11.80;99.90
17639;DHT22;8938;53.546;9.954;2023-04-15T00:29:11;11.90;99.90
17639;DHT22;8938;53.546;9.954;2023-04-15T00:31:37;11.90;99.90
17639;DHT22;8938;53.546;9.954;2023-04-15T00:34:02;12.00;99.90
17639;DHT22;8938;53.546;9.954;2023-04-15T00:36:29;11.90;99.90
17639;DHT22;8938;53.546;9.954;2023-04-15T00:38:54;12.00;99.90
17639;DHT22;8938;53.546;9.954;2023-04-15T00:41:20;12.00;99.90
17639;DHT22;8938;53.546;9.954;2023-04-15T00:43:47;12.00;99.90
17639;DHT22;8938;53.546;9.954;2023-04-15T00:46:14;12.00;99.90
17639;DHT22;8938;53.546;9.954;2023-04-15T00:48:41;12.00;99.90
17639;DHT22;8938;53.546;9.954;2023-04-15T00:51:06;12.00;99.90
17639;DHT22;8938;53.546;9.954;2023-04-15T00:53:34;12.00;99.90
17639;DHT22;8938;53.546;9.954;2023-04-15T00:56:00;12.00;99.90
17639;DHT22;8938;53.546;9.954;2023-04-15T00:58:25;11.90;99.90
17639;DHT22;8938;53.546;9.954;2023-04-15T01:00:55;11.90;99.90
17639;DHT22;8938;53.546;9.954;2023-04-15T01:03:21;11.90;99.90
17639;DHT22;8938;53.546;9.954;2023-04-15T01:05:47;11.80;99.90
17639;DHT22;8938;53.546;9.954;2023-04-15T01:08:13;11.80;99.90
17639;DHT22;8938;53.546;9.954;2023-04-15T01:10:39;11.90;99.90
17639;DHT22;8938;53.546;9.954;2023-04-15T01:13:04;11.80;99.90
17639;DHT22;8938;53.546;9.954;2023-04-15T01:15:30;11.90;99.90
17639;DHT22;8938;53.546;9.954;2023-04-15T01:17:58;11.90;99.90
17639;DHT22;8938;53.546;9.954;2023-04-15T01:20:23;12.00;99.90
17639;DHT22;8938;53.546;9.954;2023-04-15T01:22:49;12.00;99.90
17639;DHT22;8938;53.546;9.954;2023-04-15T01:25:24;12.10;99.90
17639;DHT22;8938;53.546;9.954;2023-04-15T01:27:51;12.10;99.90
17639;DHT22;8938;53.546;9.954;2023-04-15T01:30:17;12.20;99.90
17639;DHT22;8938;53.546;9.954;2023-04-15T01:32:42;12.10;99.90
17639;DHT22;8938;53.546;9.954;2023-04-15T01:35:08;12.10;99.90
17639;DHT22;8938;53.546;9.954;2023-04-15T01:37:34;12.10;99.90
17639;DHT22;8938;53.546;9.954;2023-04-15T01:40:00;12.10;99.90
17639;DHT22;8938;53.546;9.954;2023-04-15T01:42:26;12.00;99.90
17639;DHT22;8938;53.546;9.954;2023-04-15T01:44:52;12.00;99.90
17639;DHT22;8938;53.546;9.954;2023-04-15T01:47:18;12.00;99.90
17639;DHT22;8938;53.546;9.954;2023-04-15T01:49:43;12.00;99.90
17639;DHT22;8938;53.546;9.954;2023-04-15T01:52:09;12.10;99.90
17639;DHT22;8938;53.546;9.954;2023-04-15T01:54:34;12.10;99.90
17639;DHT22;8938;53.546;9.954;2023-04-15T01:57:00;12.10;99.90
17639;DHT22;8938;53.546;9.954;2023-04-15T01:59:26;12.10;99.90
17639;DHT22;8938;53.546;9.954;2023-04-15T02:01:52;12.10;99.90
17639;DHT22;8938;53.546;9.954;2023-04-15T02:04:17;12.00;99.90
17639;DHT22;8938;53.546;9.954;2023-04-15T02:06:43;12.00;99.90
17639;DHT22;8938;53.546;9.954;2023-04-15T02:09:09;12.00;99.90
17639;DHT22;8938;53.546;9.954;2023-04-15T02:11:35;12.00;99.90
17639;DHT22;8938;53.546;9.954;2023-04-15T02:14:02;12.10;99.90
17639;DHT22;8938;53.546;9.954;2023-04-15T02:16:29;12.10;99.90
17639;DHT22;8938;53.546;9.954;2023-04-15T02:18:54;12.10;99.90
17639;DHT22;8938;53.546;9.954;2023-04-15T02:21:20;12.20;99.90
17639;DHT22;8938;53.546;9.954;2023-04-15T02:23:46;12.20;99.90
17639;DHT22;8938;53.546;9.954;2023-04-15T02:26:12;12.20;99.90
17639;DHT22;8938;53.546;9.954;2023-04-15T02:28:38;12.10;99.90
17639;DHT22;8938;53.546;9.954;2023-04-15T02:31:07;12.00;99.90
17639;DHT22;8938;53.546;9.954;2023-04-15T02:33:34;12.10;99.90
17639;DHT22;8938;53.546;9.954;2023-04-15T02:35:59;12.10;99.90
17639;DHT22;8938;53.546;9.954;2023-04-15T02:38:25;12.10;99.90
17639;DHT22;8938;53.546;9.954;2023-04-15T02:40:51;12.10;99.90
17639;DHT22;8938;53.546;9.954;2023-04-15T02:43:16;12.20;99.90
17639;DHT22;8938;53.546;9.954;2023-04-15T02:45:43;12.20;99.90
17639;DHT22;8938;53.546;9.954;2023-04-15T02:48:09;12.10;99.90
17639;DHT22;8938;53.546;9.954;2023-04-15T02:50:35;12.20;99.90
17639;DHT22;8938;53.546;9.954;2023-04-15T02:53:03;12.10;99.90
17639;DHT22;8938;53.546;9.954;2023-04-15T02:55:30;12.20;99.90
17639;DHT22;8938;53.546;9.954;2023-04-15T02:57:55;12.20;99.90
17639;DHT22;8938;53.546;9.954;2023-04-15T03:00:23;12.20;99.90
17639;DHT22;8938;53.546;9.954;2023-04-15T03:02:49;12.20;99.90
17639;DHT22;8938;53.546;9.954;2023-04-15T03:05:21;12.20;99.90
17639;DHT22;8938;53.546;9.954;2023-04-15T03:07:49;12.10;99.90
17639;DHT22;8938;53.546;9.954;2023-04-15T03:10:14;12.10;99.90
17639;DHT22;8938;53.546;9.954;2023-04-15T03:12:40;12.10;99.90
17639;DHT22;8938;53.546;9.954;2023-04-15T03:15:06;12.10;99.90
17639;DHT22;8938;53.546;9.954;2023-04-15T03:17:32;12.10;99.90
17639;DHT22;8938;53.546;9.954;2023-04-15T03:19:57;12.10;99.90
17639;DHT22;8938;53.546;9.954;2023-04-15T03:22:23;12.00;99.90
17639;DHT22;8938;53.546;9.954;2023-04-15T03:24:49;12.00;99.90
17639;DHT22;8938;53.546;9.954;2023-04-15T03:27:15;11.90;99.90
17639;DHT22;8938;53.546;9.954;2023-04-15T03:29:40;11.90;99.90
17639;DHT22;8938;53.546;9.954;2023-04-15T03:32:06;11.90;99.90
17639;DHT22;8938;53.546;9.954;2023-04-15T03:34:31;12.00;99.90
17639;DHT22;8938;53.546;9.954;2023-04-15T03:36:57;12.00;99.90
17639;DHT22;8938;53.546;9.954;2023-04-15T03:39:22;12.00;99.90
17639;DHT22;8938;53.546;9.954;2023-04-15T03:41:48;12.00;99.90
17639;DHT22;8938;53.546;9.954;2023-04-15T03:44:13;12.00;99.90
17639;DHT22;8938;53.546;9.954;2023-04-15T03:46:39;12.00;99.90
17639;DHT22;8938;53.546;9.954;2023-04-15T03:49:08;12.00;99.90
17639;DHT22;8938;53.546;9.954;2023-04-15T03:51:34;12.10;99.90
17639;DHT22;8938;53.546;9.954;2023-04-15T03:53:59;12.10;99.90
17639;DHT22;8938;53.546;9.954;2023-04-15T03:56:26;12.20;99.90
17639;DHT22;8938;53.546;9.954;2023-04-15T03:58:51;12.20;99.90
17639;DHT22;8938;53.546;9.954;2023-04-15T04:01:18;12.20;99.90
17639;DHT22;8938;53.546;9.954;2023-04-15T04:03:43;12.30;99.90
17639;DHT22;8938;53.546;9.954;2023-04-15T04:06:08;12.20;99.90
17639;DHT22;8938;53.546;9.954;2023-04-15T04:08:36;12.10;99.90
17639;DHT22;8938;53.546;9.954;2023-04-15T04:11:02;12.00;99.90
17639;DHT22;8938;53.546;9.954;2023-04-15T04:13:27;12.00;99.90
17639;DHT22;8938;53.546;9.954;2023-04-15T04:15:53;12.10;99.90
17639;DHT22;8938;53.546;9.954;2023-04-15T04:18:19;12.00;99.90
17639;DHT22;8938;53.546;9.954;2023-04-15T04:20:45;12.10;99.90
17639;DHT22;8938;53.546;9.954;2023-04-15T04:23:10;12.00;99.90
17639;DHT22;8938;53.546;9.954;2023-04-15T04:25:36;11.90;99.90
17639;DHT22;8938;53.546;9.954;2023-04-15T04:28:02;12.00;99.90
17639;DHT22;8938;53.546;9.954;2023-04-15T04:30:27;12.00;99.90
17639;DHT22;8938;53.546;9.954;2023-04-15T04:32:53;12.00;99.90
17639;DHT22;8938;53.546;9.954;2023-04-15T04:35:19;12.10;99.90
17639;DHT22;8938;53.546;9.954;2023-04-15T04:37:45;12.10;99.90
17639;DHT22;8938;53.546;9.954;2023-04-15T04:40:10;12.10;99.90
17639;DHT22;8938;53.546;9.954;2023-04-15T04:42:36;12.00;99.90
17639;DHT22;8938;53.546;9.954;2023-04-15T04:45:02;12.10;99.90
17639;DHT22;8938;53.546;9.954;2023-04-15T04:47:27;12.10;99.90
17639;DHT22;8938;53.546;9.954;2023-04-15T04:49:54;12.10;99.90
17639;DHT22;8938;53.546;9.954;2023-04-15T04:52:20;12.10;99.90
17639;DHT22;8938;53.546;9.954;2023-04-15T04:54:45;12.20;99.90
17639;DHT22;8938;53.546;9.954;2023-04-15T04:57:11;12.20;99.90
17639;DHT22;8938;53.546;9.954;2023-04-15T04:59:38;12.20;99.90
17639;DHT22;8938;53.546;9.954;2023-04-15T05:02:03;12.20;99.90
17639;DHT22;8938;53.546;9.954;2023-04-15T05:04:29;12.20;99.90
17639;DHT22;8938;53.546;9.954;2023-04-15T05:06:56;12.20;99.90
17639;DHT22;8938;53.546;9.954;2023-04-15T05:09:22;12.20;99.90
17639;DHT22;8938;53.546;9.954;2023-04-15T05:11:48;12.20;99.90
17639;DHT22;8938;53.546;9.954;2023-04-15T05:14:13;12.20;99.90
17639;DHT22;8938;53.546;9.954;2023-04-15T05:16:39;12.20;99.90
17639;DHT22;8938;53.546;9.954;2023-04-15T05:19:04;12.20;99.90
17639;DHT22;8938;53.546;9.954;2023-04-15T05:21:30;12.20;99.90
17639;DHT22;8938;53.546;9.954;2023-04-15T05:23:56;12.20;99.90
17639;DHT22;8938;53.546;9.954;2023-04-15T05:26:21;12.10;99.90
17639;DHT22;8938;53.546;9.954;2023-04-15T05:28:48;12.20;99.90
17639;DHT22;8938;53.546;9.954;2023-04-15T05:31:14;12.20;99.90
17639;DHT22;8938;53.546;9.954;2023-04-15T05:33:40;12.20;99.90
17639;DHT22;8938;53.546;9.954;2023-04-15T05:36:06;12.20;99.90
17639;DHT22;8938;53.546;9.954;2023-04-15T05:38:31;12.10;99.90
17639;DHT22;8938;53.546;9.954;2023-04-15T05:40:57;12.10;99.90
17639;DHT22;8938;53.546;9.954;2023-04-15T05:43:23;12.10;99.90
17639;DHT22;8938;53.546;9.954;2023-04-15T05:45:48;12.10;99.90
17639;DHT22;8938;53.546;9.954;2023-04-15T05:48:14;12.10;99.90
17639;DHT22;8938;53.546;9.954;2023-04-15T05:50:41;12.20;99.90
17639;DHT22;8938;53.546;9.954;2023-04-15T05:53:07;12.20;99.90
17639;DHT22;8938;53.546;9.954;2023-04-15T05:55:33;12.30;99.90
17639;DHT22;8938;53.546;9.954;2023-04-15T05:57:58;12.30;99.90
17639;DHT22;8938;53.546;9.954;2023-04-15T06:00:24;12.30;99.90
17639;DHT22;8938;53.546;9.954;2023-04-15T06:02:50;12.30;99.90
17639;DHT22;8938;53.546;9.954;2023-04-15T06:05:17;12.20;99.90
17639;DHT22;8938;53.546;9.954;2023-04-15T06:07:42;12.10;99.90
17639;DHT22;8938;53.546;9.954;2023-04-15T06:10:09;12.20;99.90
17639;DHT22;8938;53.546;9.954;2023-04-15T06:12:35;12.20;99.90
17639;DHT22;8938;53.546;9.954;2023-04-15T06:15:01;12.30;99.90
17639;DHT22;8938;53.546;9.954;2023-04-15T06:17:26;12.40;99.90
17639;DHT22;8938;53.546;9.954;2023-04-15T06:19:52;12.50;99.90
17639;DHT22;8938;53.546;9.954;2023-04-15T06:22:21;12.60;99.90
17639;DHT22;8938;53.546;9.954;2023-04-15T06:24:47;12.50;99.90
17639;DHT22;8938;53.546;9.954;2023-04-15T06:27:15;12.50;99.90
17639;DHT22;8938;53.546;9.954;2023-04-15T06:29:40;12.50;99.90
17639;DHT22;8938;53.546;9.954;2023-04-15T06:32:06;12.40;99.90
17639;DHT22;8938;53.546;9.954;2023-04-15T06:34:32;12.40;99.90
17639;DHT22;8938;53.546;9.954;2023-04-15T06:36:57;12.40;99.90
17639;DHT22;8938;53.546;9.954;2023-04-15T06:39:23;12.40;99.90
17639;DHT22;8938;53.546;9.954;2023-04-15T06:41:48;12.40;99.90
17639;DHT22;8938;53.546;9.954;2023-04-15T06:44:14;12.50;99.90
17639;DHT22;8938;53.546;9.954;2023-04-15T06:46:40;12.50;99.90
17639;DHT22;8938;53.546;9.954;2023-04-15T06:49:05;12.60;99.90
17639;DHT22;8938;53.546;9.954;2023-04-15T06:51:31;12.60;99.90
17639;DHT22;8938;53.546;9.954;2023-04-15T06:53:57;12.70;99.90
17639;DHT22;8938;53.546;9.954;2023-04-15T06:56:22;12.70;99.90
17639;DHT22;8938;53.546;9.954;2023-04-15T06:58:48;12.60;99.90
17639;DHT22;8938;53.546;9.954;2023-04-15T07:01:13;12.60;99.90
17639;DHT22;8938;53.546;9.954;2023-04-15T07:03:39;12.60;99.90
17639;DHT22;8938;53.546;9.954;2023-04-15T07:06:06;12.60;99.90
17639;DHT22;8938;53.546;9.954;2023-04-15T07:08:32;12.60;99.90
17639;DHT22;8938;53.546;9.954;2023-04-15T07:10:59;12.60;99.90
17639;DHT22;8938;53.546;9.954;2023-04-15T07:13:24;12.40;99.90
17639;DHT22;8938;53.546;9.954;2023-04-15T07:15:50;12.50;99.90
17639;DHT22;8938;53.546;9.954;2023-04-15T07:18:16;12.50;99.90
17639;DHT22;8938;53.546;9.954;2023-04-15T07:20:42;12.60;99.90
17639;DHT22;8938;53.546;9.954;2023-04-15T07:23:07;12.50;99.90
17639;DHT22;8938;53.546;9.954;2023-04-15T07:25:33;12.60;99.90
17639;DHT22;8938;53.546;9.954;2023-04-15T07:27:59;12.60;99.90
17639;DHT22;8938;53.546;9.954;2023-04-15T07:30:24;12.70;99.90
17639;DHT22;8938;53.546;9.954;2023-04-15T07:32:50;12.80;99.90
17639;DHT22;8938;53.546;9.954;2023-04-15T07:35:15;12.80;99.90
17639;DHT22;8938;53.546;9.954;2023-04-15T07:37:41;12.90;99.90
17639;DHT22;8938;53.546;9.954;2023-04-15T07:40:08;13.00;99.90
17639;DHT22;8938;53.546;9.954;2023-04-15T07:42:34;13.00;99.90
17639;DHT22;8938;53.546;9.954;2023-04-15T07:45:00;13.00;99.90
17639;DHT22;8938;53.546;9.954;2023-04-15T07:47:25;13.00;99.90
17639;DHT22;8938;53.546;9.954;2023-04-15T07:49:51;13.00;99.90
17639;DHT22;8938;53.546;9.954;2023-04-15T07:52:17;13.00;99.90
17639;DHT22;8938;53.546;9.954;2023-04-15T07:54:43;12.90;99.90
17639;DHT22;8938;53.546;9.954;2023-04-15T07:57:09;12.90;99.90
17639;DHT22;8938;53.546;9.954;2023-04-15T07:59:34;12.90;99.90
17639;DHT22;8938;53.546;9.954;2023-04-15T08:02:00;12.90;99.90
17639;DHT22;8938;53.546;9.954;2023-04-15T08:04:26;12.90;99.90
17639;DHT22;8938;53.546;9.954;2023-04-15T08:06:52;12.90;99.90
17639;DHT22;8938;53.546;9.954;2023-04-15T08:09:19;13.00;99.90
17639;DHT22;8938;53.546;9.954;2023-04-15T08:11:47;13.00;99.90
17639;DHT22;8938;53.546;9.954;2023-04-15T08:14:13;13.10;99.90
17639;DHT22;8938;53.546;9.954;2023-04-15T08:16:38;13.20;99.90
17639;DHT22;8938;53.546;9.954;2023-04-15T08:19:05;13.10;99.90
17639;DHT22;8938;53.546;9.954;2023-04-15T08:21:31;13.10;99.90
17639;DHT22;8938;53.546;9.954;2023-04-15T08:23:57;13.10;99.90
17639;DHT22;8938;53.546;9.954;2023-04-15T08:26:22;13.10;99.90
17639;DHT22;8938;53.546;9.954;2023-04-15T08:28:48;13.20;99.90
17639;DHT22;8938;53.546;9.954;2023-04-15T08:31:15;13.20;99.90
17639;DHT22;8938;53.546;9.954;2023-04-15T08:33:41;13.20;99.90
17639;DHT22;8938;53.546;9.954;2023-04-15T08:36:06;13.20;99.90
17639;DHT22;8938;53.546;9.954;2023-04-15T08:38:33;13.30;99.90
17639;DHT22;8938;53.546;9.954;2023-04-15T08:41:00;13.20;99.90
17639;DHT22;8938;53.546;9.954;2023-04-15T08:43:35;13.20;99.90
17639;DHT22;8938;53.546;9.954;2023-04-15T08:46:03;13.30;99.90
17639;DHT22;8938;53.546;9.954;2023-04-15T08:48:32;13.30;99.90
17639;DHT22;8938;53.546;9.954;2023-04-15T08:51:00;13.30;99.90
17639;DHT22;8938;53.546;9.954;2023-04-15T08:53:28;13.40;99.90
17639;DHT22;8938;53.546;9.954;2023-04-15T08:55:56;13.30;99.90
17639;DHT22;8938;53.546;9.954;2023-04-15T08:58:23;13.30;99.90
17639;DHT22;8938;53.546;9.954;2023-04-15T09:00:49;13.50;99.90
17639;DHT22;8938;53.546;9.954;2023-04-15T09:03:15;13.50;99.90
17639;DHT22;8938;53.546;9.954;2023-04-15T09:05:42;13.60;99.90
17639;DHT22;8938;53.546;9.954;2023-04-15T09:08:07;13.60;99.90
17639;DHT22;8938;53.546;9.954;2023-04-15T09:10:33;13.60;99.90
17639;DHT22;8938;53.546;9.954;2023-04-15T09:12:59;13.40;99.90
17639;DHT22;8938;53.546;9.954;2023-04-15T09:15:25;13.30;99.90
17639;DHT22;8938;53.546;9.954;2023-04-15T09:17:54;13.40;99.90
17639;DHT22;8938;53.546;9.954;2023-04-15T09:20:21;13.40;99.90
17639;DHT22;8938;53.546;9.954;2023-04-15T09:22:48;13.60;99.90
17639;DHT22;8938;53.546;9.954;2023-04-15T09:27:50;13.80;99.90
17639;DHT22;8938;53.546;9.954;2023-04-15T09:30:16;13.80;99.90
17639;DHT22;8938;53.546;9.954;2023-04-15T09:32:59;13.90;99.90
17639;DHT22;8938;53.546;9.954;2023-04-15T09:35:25;13.90;99.90
17639;DHT22;8938;53.546;9.954;2023-04-15T09:37:52;14.20;99.90
17639;DHT22;8938;53.546;9.954;2023-04-15T09:40:31;14.30;99.90
17639;DHT22;8938;53.546;9.954;2023-04-15T09:42:58;14.40;99.90
17639;DHT22;8938;53.546;9.954;2023-04-15T09:45:23;14.60;99.90
17639;DHT22;8938;53.546;9.954;2023-04-15T09:47:49;14.70;99.90
17639;DHT22;8938;53.546;9.954;2023-04-15T09:50:19;14.80;99.90
17639;DHT22;8938;53.546;9.954;2023-04-15T09:52:45;15.10;99.90
17639;DHT22;8938;53.546;9.954;2023-04-15T09:55:12;15.50;99.90
17639;DHT22;8938;53.546;9.954;2023-04-15T09:57:38;15.80;99.90
17639;DHT22;8938;53.546;9.954;2023-04-15T10:00:07;15.80;99.90
17639;DHT22;8938;53.546;9.954;2023-04-15T10:02:34;15.70;99.90
17639;DHT22;8938;53.546;9.954;2023-04-15T10:05:01;15.70;99.90
17639;DHT22;8938;53.546;9.954;2023-04-15T10:07:27;15.60;99.90
17639;DHT22;8938;53.546;9.954;2023-04-15T10:09:53;15.60;99.90
17639;DHT22;8938;53.546;9.954;2023-04-15T10:12:19;15.70;99.90
17639;DHT22;8938;53.546;9.954;2023-04-15T10:14:49;15.70;99.90
17639;DHT22;8938;53.546;9.954;2023-04-15T10:17:17;15.80;99.90
17639;DHT22;8938;53.546;9.954;2023-04-15T10:19:43;15.90;99.90
17639;DHT22;8938;53.546;9.954;2023-04-15T10:22:09;15.80;99.90
17639;DHT22;8938;53.546;9.954;2023-04-15T10:24:34;15.80;99.90
17639;DHT22;8938;53.546;9.954;2023-04-15T10:27:02;16.00;99.90
17639;DHT22;8938;53.546;9.954;2023-04-15T10:29:29;16.30;99.90
17639;DHT22;8938;53.546;9.954;2023-04-15T10:31:55;16.50;99.90
17639;DHT22;8938;53.546;9.954;2023-04-15T10:34:23;16.60;99.90
17639;DHT22;8938;53.546;9.954;2023-04-15T10:36:49;16.70;99.90
17639;DHT22;8938;53.546;9.954;2023-04-15T10:42:13;17.00;99.90
17639;DHT22;8938;53.546;9.954;2023-04-15T10:44:42;17.10;99.90
17639;DHT22;8938;53.546;9.954;2023-04-15T10:47:13;17.10;99.90
17639;DHT22;8938;53.546;9.954;2023-04-15T10:49:57;17.10;99.90
17639;DHT22;8938;53.546;9.954;2023-04-15T10:52:26;17.20;99.90
17639;DHT22;8938;53.546;9.954;2023-04-15T10:55:18;17.30;99.90
17639;DHT22;8938;53.546;9.954;2023-04-15T10:57:44;17.30;99.90
17639;DHT22;8938;53.546;9.954;2023-04-15T11:00:11;17.40;99.90
17639;DHT22;8938;53.546;9.954;2023-04-15T11:02:47;17.50;99.90
17639;DHT22;8938;53.546;9.954;2023-04-15T11:05:16;17.60;99.90
17639;DHT22;8938;53.546;9.954;2023-04-15T11:12:44;17.80;99.90
17639;DHT22;8938;53.546;9.954;2023-04-15T11:15:33;17.90;99.90
17639;DHT22;8938;53.546;9.954;2023-04-15T11:18:09;17.70;99.90
17639;DHT22;8938;53.546;9.954;2023-04-15T11:20:36;17.60;99.90
17639;DHT22;8938;53.546;9.954;2023-04-15T11:23:03;17.40;99.90
17639;DHT22;8938;53.546;9.954;2023-04-15T11:25:32;17.30;99.90
17639;DHT22;8938;53.546;9.954;2023-04-15T11:27:59;17.20;99.90
17639;DHT22;8938;53.546;9.954;2023-04-15T11:30:27;17.20;99.90
17639;DHT22;8938;53.546;9.954;2023-04-15T11:32:57;17.00;99.90
17639;DHT22;8938;53.546;9.954;2023-04-15T11:35:23;17.00;99.90
17639;DHT22;8938;53.546;9.954;2023-04-15T11:37:49;17.00;99.90
17639;DHT22;8938;53.546;9.954;2023-04-15T11:40:22;17.00;99.90
17639;DHT22;8938;53.546;9.954;2023-04-15T11:43:06;17.00;99.90
17639;DHT22;8938;53.546;9.954;2023-04-15T11:45:32;16.80;99.90
17639;DHT22;8938;53.546;9.954;2023-04-15T11:48:09;16.80;99.90
17639;DHT22;8938;53.546;9.954;2023-04-15T11:50:35;16.70;99.90
17639;DHT22;8938;53.546;9.954;2023-04-15T11:53:05;16.70;99.90
17639;DHT22;8938;53.546;9.954;2023-04-15T11:55:45;16.80;99.90
17639;DHT22;8938;53.546;9.954;2023-04-15T11:58:13;16.90;99.90
17639;DHT22;8938;53.546;9.954;2023-04-15T12:00:47;17.00;99.90
17639;DHT22;8938;53.546;9.954;2023-04-15T12:03:17;17.10;99.90
17639;DHT22;8938;53.546;9.954;2023-04-15T12:06:18;17.10;99.90
17639;DHT22;8938;53.546;9.954;2023-04-15T12:09:12;17.20;99.90
17639;DHT22;8938;53.546;9.954;2023-04-15T12:14:31;17.30;99.90
17639;DHT22;8938;53.546;9.954;2023-04-15T12:17:03;17.20;99.90
17639;DHT22;8938;53.546;9.954;2023-04-15T12:19:40;17.00;99.90
17639;DHT22;8938;53.546;9.954;2023-04-15T12:22:13;17.10;99.90
17639;DHT22;8938;53.546;9.954;2023-04-15T12:24:41;17.00;99.90
17639;DHT22;8938;53.546;9.954;2023-04-15T12:27:14;16.90;99.90
17639;DHT22;8938;53.546;9.954;2023-04-15T12:29:41;16.90;99.90
17639;DHT22;8938;53.546;9.954;2023-04-15T12:32:10;16.80;99.90
17639;DHT22;8938;53.546;9.954;2023-04-15T12:34:38;16.70;99.90
17639;DHT22;8938;53.546;9.954;2023-04-15T12:37:05;16.50;99.90
17639;DHT22;8938;53.546;9.954;2023-04-15T12:39:35;16.60;99.90
17639;DHT22;8938;53.546;9.954;2023-04-15T12:42:01;16.60;99.90
17639;DHT22;8938;53.546;9.954;2023-04-15T12:44:27;16.60;99.90
17639;DHT22;8938;53.546;9.954;2023-04-15T12:46:53;16.60;99.90
17639;DHT22;8938;53.546;9.954;2023-04-15T12:49:24;16.60;99.90
17639;DHT22;8938;53.546;9.954;2023-04-15T12:51:52;16.60;99.90
17639;DHT22;8938;53.546;9.954;2023-04-15T12:54:18;16.60;99.90
17639;DHT22;8938;53.546;9.954;2023-04-15T12:56:45;16.50;99.90
17639;DHT22;8938;53.546;9.954;2023-04-15T12:59:12;16.60;99.90
17639;DHT22;8938;53.546;9.954;2023-04-15T13:01:38;16.60;99.90
17639;DHT22;8938;53.546;9.954;2023-04-15T13:04:04;16.70;99.90
17639;DHT22;8938;53.546;9.954;2023-04-15T13:06:30;16.70;99.90
17639;DHT22;8938;53.546;9.954;2023-04-15T13:09:01;16.80;99.90
17639;DHT22;8938;53.546;9.954;2023-04-15T13:11:28;17.00;99.90
17639;DHT22;8938;53.546;9.954;2023-04-15T13:14:00;17.00;99.90
17639;DHT22;8938;53.546;9.954;2023-04-15T13:16:26;17.10;99.90
17639;DHT22;8938;53.546;9.954;2023-04-15T13:18:51;17.20;99.90
17639;DHT22;8938;53.546;9.954;2023-04-15T13:21:18;17.20;99.90
17639;DHT22;8938;53.546;9.954;2023-04-15T13:23:44;17.20;99.90
17639;DHT22;8938;53.546;9.954;2023-04-15T13:26:09;17.20;99.90
17639;DHT22;8938;53.546;9.954;2023-04-15T13:28:35;17.00;99.90
17639;DHT22;8938;53.546;9.954;2023-04-15T13:31:01;17.10;99.90
17639;DHT22;8938;53.546;9.954;2023-04-15T13:33:27;17.20;99.90
17639;DHT22;8938;53.546;9.954;2023-04-15T13:35:52;17.10;99.90
17639;DHT22;8938;53.546;9.954;2023-04-15T13:38:18;17.20;99.90
17639;DHT22;8938;53.546;9.954;2023-04-15T13:40:43;17.30;99.90
17639;DHT22;8938;53.546;9.954;2023-04-15T13:43:09;17.40;99.90
17639;DHT22;8938;53.546;9.954;2023-04-15T13:45:35;17.50;99.90
17639;DHT22;8938;53.546;9.954;2023-04-15T13:48:01;17.40;99.90
17639;DHT22;8938;53.546;9.954;2023-04-15T13:50:27;17.40;99.90
17639;DHT22;8938;53.546;9.954;2023-04-15T13:52:53;17.30;99.90
17639;DHT22;8938;53.546;9.954;2023-04-15T13:55:18;17.40;99.90
17639;DHT22;8938;53.546;9.954;2023-04-15T13:57:44;17.50;99.90
17639;DHT22;8938;53.546;9.954;2023-04-15T14:00:10;17.60;99.90
17639;DHT22;8938;53.546;9.954;2023-04-15T14:02:36;17.60;99.90
17639;DHT22;8938;53.546;9.954;2023-04-15T14:05:02;17.70;99.90
17639;DHT22;8938;53.546;9.954;2023-04-15T14:07:29;17.60;99.90
17639;DHT22;8938;53.546;9.954;2023-04-15T14:09:55;17.60;99.70
17639;DHT22;8938;53.546;9.954;2023-04-15T14:12:21;17.70;99.90
17639;DHT22;8938;53.546;9.954;2023-04-15T14:14:46;17.60;99.70
17639;DHT22;8938;53.546;9.954;2023-04-15T14:17:12;17.70;99.90
17639;DHT22;8938;53.546;9.954;2023-04-15T14:19:37;17.70;99.90
17639;DHT22;8938;53.546;9.954;2023-04-15T14:22:03;17.70;99.70
17639;DHT22;8938;53.546;9.954;2023-04-15T14:24:30;17.70;99.60
17639;DHT22;8938;53.546;9.954;2023-04-15T14:26:55;17.80;99.60
17639;DHT22;8938;53.546;9.954;2023-04-15T14:29:21;17.90;99.60
17639;DHT22;8938;53.546;9.954;2023-04-15T14:31:47;17.70;99.20
17639;DHT22;8938;53.546;9.954;2023-04-15T14:34:14;17.70;99.40
17639;DHT22;8938;53.546;9.954;2023-04-15T14:36:40;17.70;99.60
17639;DHT22;8938;53.546;9.954;2023-04-15T14:39:06;17.80;99.90
17639;DHT22;8938;53.546;9.954;2023-04-15T14:41:32;17.80;99.40
17639;DHT22;8938;53.546;9.954;2023-04-15T14:43:58;17.90;99.30
17639;DHT22;8938;53.546;9.954;2023-04-15T14:46:24;17.90;99.40
17639;DHT22;8938;53.546;9.954;2023-04-15T14:48:50;17.90;99.50
17639;DHT22;8938;53.546;9.954;2023-04-15T14:51:16;17.60;99.10
17639;DHT22;8938;53.546;9.954;2023-04-15T14:53:41;17.70;99.90
17639;DHT22;8938;53.546;9.954;2023-04-15T14:56:08;17.70;99.90
17639;DHT22;8938;53.546;9.954;2023-04-15T14:58:34;17.60;99.90
17639;DHT22;8938;53.546;9.954;2023-04-15T15:01:00;17.40;99.90
17639;DHT22;8938;53.546;9.954;2023-04-15T15:03:27;17.60;99.90
17639;DHT22;8938;53.546;9.954;2023-04-15T15:05:53;17.50;99.90
17639;DHT22;8938;53.546;9.954;2023-04-15T15:08:19;17.40;99.90
17639;DHT22;8938;53.546;9.954;2023-04-15T15:10:44;17.60;99.90
17639;DHT22;8938;53.546;9.954;2023-04-15T15:13:10;17.60;99.90
17639;DHT22;8938;53.546;9.954;2023-04-15T15:15:37;17.50;99.90
17639;DHT22;8938;53.546;9.954;2023-04-15T15:18:03;17.50;99.90
17639;DHT22;8938;53.546;9.954;2023-04-15T15:20:29;17.60;99.90
17639;DHT22;8938;53.546;9.954;2023-04-15T15:22:55;17.50;99.90
17639;DHT22;8938;53.546;9.954;2023-04-15T15:25:20;17.70;99.90
17639;DHT22;8938;53.546;9.954;2023-04-15T15:27:46;17.50;99.90
17639;DHT22;8938;53.546;9.954;2023-04-15T15:30:12;17.40;99.90
17639;DHT22;8938;53.546;9.954;2023-04-15T15:32:41;17.30;99.90
17639;DHT22;8938;53.546;9.954;2023-04-15T15:35:08;17.20;99.90
17639;DHT22;8938;53.546;9.954;2023-04-15T15:37:34;17.30;99.90
17639;DHT22;8938;53.546;9.954;2023-04-15T15:40:02;17.40;99.90
17639;DHT22;8938;53.546;9.954;2023-04-15T15:42:30;17.40;99.90
17639;DHT22;8938;53.546;9.954;2023-04-15T15:44:56;17.30;99.80
17639;DHT22;8938;53.546;9.954;2023-04-15T15:47:22;17.00;99.90
17639;DHT22;8938;53.546;9.954;2023-04-15T15:49:48;16.90;99.90
17639;DHT22;8938;53.546;9.954;2023-04-15T15:52:13;16.90;99.90
17639;DHT22;8938;53.546;9.954;2023-04-15T15:54:39;17.00;99.90